KGGW/GGW METAR and TAF weather

Enter ICAO airport designator
Station Type Date Time Source
KGGW METAR 2022/01/18 06:53 UTC NOAA

KGGW 180653Z AUTO 29017G26KT 10SM BKN085 06/M01 A2947 RMK AO2 PK WND 29026/0646 SLP997 T00561006 400671050


Station Type Date Time Source
KGGW Decoded METAR 2022/01/18 06:53 UTC NOAA

GLASGOW INTERNATIONAL AIRPORT , MT, United States (KGGW) 48-13N 106-37W 693M
Jan 18, 2022 - 01:53 AM EST / 2022.01.18 0653 UTC
Wind: from the WNW (290 degrees) at 20 MPH (17 KT) gusting to 30 MPH (26 KT):0
Visibility: 10 mile(s):0
Sky conditions: mostly cloudy
Temperature: 42.1 F (5.6 C)
Dew Point: 30.9 F (-0.6 C)
Relative Humidity: 64%
Pressure (altimeter): 29.47 in. Hg (997 hPa)
ob: KGGW 180653Z AUTO 29017G26KT 10SM BKN085 06/M01 A2947 RMK AO2 PK WND 29026/0646 SLP997 T00561006 400671050
cycle: 7

Station Type Date Time Source
KGGW TAF 2022/01/18 06:36 UTC NOAA

TAF KGGW 180533Z 1806/1906 28016KT P6SM SCT090 WS020/29050KT
FM181000 31020G30KT P6SM BKN060
FM181600 32018G28KT P6SM BKN025

Example: see airport list